Time;durP1;ratioP1;P1;durP2;ratioP2;P2;SDS_P1;SDS_P2;PMS_P1;PMS_P2;Temp;Humidity;BMP_temperature;BMP_pressure;BME280_temperature;BME280_humidity;BME280_pressure;Samples;Min_cycle;Max_cycle;Signal;HPM_P1;HPM_P2
2022/03/04 00:01:26;;;;;;;10.32;6.97;;;;;;;2.22;53.66;101771.25;4920516;29;20130;-89
2022/03/04 00:03:52;;;;;;;10.77;7.07;;;;;;;2.16;55.10;101774.47;4920288;29;20460;-89
2022/03/04 00:06:21;;;;;;;12.18;7.47;;;;;;;2.12;54.58;101773.03;4920161;29;20127;-89
2022/03/04 00:08:46;;;;;;;12.05;7.72;;;;;;;2.09;54.92;101776.84;4920094;29;20086;-89
2022/03/04 00:11:14;;;;;;;11.05;6.93;;;;;;;2.04;54.80;101779.09;4920262;29;20028;-89
2022/03/04 00:13:40;;;;;;;11.35;7.18;;;;;;;2.04;53.60;101783.59;4937082;29;20031;-89
2022/03/04 00:16:07;;;;;;;13.55;8.43;;;;;;;2.02;55.18;101777.53;4919810;29;20035;-89
2022/03/04 00:18:35;;;;;;;14.98;8.70;;;;;;;2.02;55.56;101785.56;4920462;29;20476;-89
2022/03/04 00:21:02;;;;;;;12.18;8.25;;;;;;;2.00;54.08;101788.38;4919689;29;20059;-89
2022/03/04 00:23:27;;;;;;;13.60;8.52;;;;;;;2.00;55.62;101788.38;4920176;29;20031;-89
2022/03/04 00:25:56;;;;;;;13.32;8.75;;;;;;;1.98;55.01;101795.69;4919423;29;20032;-88
2022/03/04 00:28:21;;;;;;;14.05;8.35;;;;;;;1.95;54.79;101790.63;4919636;29;20062;-88
2022/03/04 00:30:50;;;;;;;13.27;8.40;;;;;;;1.93;52.96;101790.75;4919572;29;20464;-88
2022/03/04 00:33:15;;;;;;;12.73;8.55;;;;;;;1.93;55.24;101793.44;4919499;29;20039;-88
2022/03/04 00:35:41;;;;;;;11.48;7.60;;;;;;;1.92;55.02;101793.56;4919451;29;20035;-88
2022/03/04 00:38:06;;;;;;;10.90;7.50;;;;;;;1.87;55.82;101798.47;4936288;29;20387;-88
2022/03/04 00:40:34;;;;;;;14.38;8.65;;;;;;;1.87;55.23;101799.31;4919684;29;20079;-89
2022/03/04 00:43:00;;;;;;;13.20;8.82;;;;;;;1.91;55.22;101813.28;4936820;29;20035;-88
2022/03/04 00:45:27;;;;;;;13.15;8.65;;;;;;;1.85;55.80;101801.28;4903467;29;20477;-89
2022/03/04 00:47:53;;;;;;;13.27;8.85;;;;;;;1.84;56.57;101814.78;4888777;29;20040;-89
2022/03/04 00:50:18;;;;;;;13.25;8.40;;;;;;;1.84;55.53;101815.63;4936448;29;20469;-88
2022/03/04 00:52:44;;;;;;;13.35;8.52;;;;;;;1.76;55.61;101802.09;4919523;29;20036;-89
2022/03/04 00:55:09;;;;;;;12.75;8.30;;;;;;;1.78;55.57;101810.00;4903491;29;20032;-89
2022/03/04 00:57:35;;;;;;;14.10;9.27;;;;;;;1.74;56.23;101802.22;4919788;29;20039;-88
2022/03/04 01:00:03;;;;;;;14.00;9.32;;;;;;;1.71;56.57;101810.53;4919873;29;20063;-89
2022/03/04 01:02:29;;;;;;;13.85;8.95;;;;;;;1.69;56.54;101804.44;4903886;29;20063;-89
2022/03/04 01:04:54;;;;;;;13.68;8.65;;;;;;;1.68;55.79;101805.44;4919327;29;20023;-88
2022/03/04 01:07:20;;;;;;;14.02;9.00;;;;;;;1.68;56.50;101809.94;4919026;29;20036;-88
2022/03/04 01:09:48;;;;;;;13.80;8.65;;;;;;;1.61;56.37;101812.31;4919624;29;20024;-89
2022/03/04 01:12:14;;;;;;;13.90;8.50;;;;;;;1.53;56.87;101806.75;4923562;29;20054;-88
2022/03/04 01:14:39;;;;;;;15.48;9.00;;;;;;;1.51;56.29;101814.09;4923005;29;20460;-89
2022/03/04 01:17:04;;;;;;;13.13;8.00;;;;;;;1.48;57.38;101814.34;4907793;29;20051;-89
2022/03/04 01:19:30;;;;;;;12.65;8.18;;;;;;;1.43;57.72;101812.03;4907212;29;20040;-88
2022/03/04 01:21:56;;;;;;;12.13;8.05;;;;;;;1.35;58.16;101803.84;4923160;29;20035;-88
2022/03/04 01:24:21;;;;;;;11.90;7.53;;;;;;;1.34;57.47;101818.19;4891622;29;20114;-88
2022/03/04 01:26:47;;;;;;;12.95;8.25;;;;;;;1.28;58.47;101808.03;4906941;29;20032;-88
2022/03/04 01:29:12;;;;;;;11.77;7.82;;;;;;;1.25;57.89;101808.28;4906778;29;20142;-89
2022/03/04 01:31:38;;;;;;;13.18;8.15;;;;;;;1.23;58.33;101819.94;4939893;29;20464;-89
2022/03/04 01:34:03;;;;;;;12.73;8.25;;;;;;;1.17;58.21;101804.44;4922668;29;20461;-88
2022/03/04 01:36:33;;;;;;;12.95;8.60;;;;;;;1.13;59.02;101808.34;4922551;29;20039;-88
2022/03/04 01:38:58;;;;;;;12.60;8.13;;;;;;;1.09;58.94;101801.56;4939730;29;20058;-88
2022/03/04 01:41:24;;;;;;;11.90;8.20;;;;;;;1.03;58.85;101799.41;4922509;29;20532;-88
2022/03/04 01:43:49;;;;;;;11.23;8.15;;;;;;;1.02;58.97;101803.06;4906619;29;20040;-88
2022/03/04 01:46:18;;;;;;;12.00;8.20;;;;;;;0.96;59.92;101796.41;4891026;29;20038;-87
2022/03/04 01:48:45;;;;;;;12.43;7.93;;;;;;;0.95;59.48;101797.38;4922771;29;20051;-88
2022/03/04 01:51:12;;;;;;;12.00;7.88;;;;;;;0.91;60.47;101795.94;4939137;29;20528;-88
2022/03/04 01:53:39;;;;;;;12.50;8.10;;;;;;;0.85;60.66;101793.78;4922378;29;20063;-88
2022/03/04 01:56:04;;;;;;;13.23;7.82;;;;;;;0.79;61.00;101797.81;4922896;29;20036;-88
2022/03/04 01:58:34;;;;;;;11.95;8.10;;;;;;;0.76;60.17;101787.38;4922478;29;20031;-88
2022/03/04 02:01:02;;;;;;;12.38;8.13;;;;;;;0.76;60.58;101797.22;4939801;29;20039;-88
2022/03/04 02:03:28;;;;;;;12.15;8.15;;;;;;;0.68;61.00;101800.56;4891470;29;20495;-89
2022/03/04 02:05:53;;;;;;;11.63;8.25;;;;;;;0.63;61.19;101800.06;4906367;29;20032;-89
2022/03/04 02:08:19;;;;;;;12.23;7.75;;;;;;;0.58;61.38;101812.97;4922091;29;20031;-88
2022/03/04 02:10:47;;;;;;;11.35;8.18;;;;;;;0.54;62.10;101806.19;4921947;29;20364;-88
2022/03/04 02:13:14;;;;;;;12.88;8.40;;;;;;;0.50;63.42;101809.09;4921666;29;20031;-89
2022/03/04 02:15:42;;;;;;;12.98;8.48;;;;;;;0.45;61.57;101800.59;4921606;29;20392;-88
2022/03/04 02:18:17;;;;;;;13.35;8.70;;;;;;;0.45;61.14;101813.13;4938674;29;20051;-88
2022/03/04 02:20:47;;;;;;;13.50;8.90;;;;;;;0.37;63.21;101808.41;4921600;29;20500;-88
2022/03/04 02:23:13;;;;;;;13.57;8.77;;;;;;;0.33;61.53;101794.44;4921037;29;20032;-88
2022/03/04 02:25:40;;;;;;;14.10;8.90;;;;;;;0.30;61.42;101793.84;4938910;29;20043;-88
2022/03/04 02:28:06;;;;;;;14.43;9.43;;;;;;;0.32;61.88;101797.25;4921762;29;20038;-88
2022/03/04 02:30:32;;;;;;;16.63;9.35;;;;;;;0.30;61.49;101801.88;4939349;29;20027;-88
2022/03/04 02:33:01;;;;;;;16.17;9.93;;;;;;;0.30;61.28;101796.53;4921660;29;20123;-89
2022/03/04 02:35:30;;;;;;;15.32;9.68;;;;;;;0.27;62.66;101792.28;4922772;29;20082;-88
2022/03/04 02:37:56;;;;;;;15.95;10.43;;;;;;;0.28;61.06;101796.66;4907026;29;20028;-89
2022/03/04 02:40:22;;;;;;;16.27;10.18;;;;;;;0.27;61.45;101786.94;4921551;29;20035;-89
2022/03/04 02:42:47;;;;;;;17.08;9.90;;;;;;;0.24;61.59;101784.53;4938539;29;20063;-88
2022/03/04 02:45:13;;;;;;;13.70;8.88;;;;;;;0.20;61.79;101780.41;4921955;29;20035;-89
2022/03/04 02:47:39;;;;;;;14.63;9.20;;;;;;;0.13;61.99;101785.41;4921776;29;20047;-89
2022/03/04 02:50:07;;;;;;;13.68;8.50;;;;;;;0.11;60.67;101792.66;4921023;29;20031;-88
2022/03/04 02:52:32;;;;;;;13.57;9.40;;;;;;;0.06;61.73;101780.66;4921254;29;20042;-88
2022/03/04 02:54:58;;;;;;;15.05;9.60;;;;;;;0.08;62.47;101790.25;4921038;29;20516;-88
2022/03/04 02:57:23;;;;;;;13.30;8.70;;;;;;;0.02;62.38;101780.06;4921802;29;20028;-88
2022/03/04 02:59:49;;;;;;;14.20;9.18;;;;;;;-0.04;60.97;101778.75;4920870;29;20413;-88
2022/03/04 03:02:18;;;;;;;15.23;10.02;;;;;;;-0.03;61.85;101782.25;4921197;29;20492;-89
2022/03/04 03:04:43;;;;;;;14.35;9.45;;;;;;;-0.07;62.62;101779.00;4920970;29;20499;-88
2022/03/04 03:07:08;;;;;;;15.20;9.63;;;;;;;-0.08;62.84;101789.78;4904994;29;20055;-88
2022/03/04 03:09:34;;;;;;;13.85;8.77;;;;;;;-0.14;63.42;101792.94;4921480;29;20484;-88
2022/03/04 03:12:00;;;;;;;15.45;9.40;;;;;;;-0.20;63.01;101783.59;4921336;29;20039;-88
2022/03/04 03:14:25;;;;;;;14.32;9.23;;;;;;;-0.20;62.40;101794.28;4904884;29;20440;-88
2022/03/04 03:16:51;;;;;;;13.20;8.70;;;;;;;-0.25;64.05;101788.44;4937807;29;20031;-88
2022/03/04 03:19:16;;;;;;;15.18;9.43;;;;;;;-0.27;63.30;101780.56;4921217;29;20044;-88
2022/03/04 03:21:42;;;;;;;14.00;9.00;;;;;;;-0.26;62.05;101784.94;4920401;29;20031;-88
2022/03/04 03:24:07;;;;;;;13.38;8.95;;;;;;;-0.29;62.02;101782.53;4937545;29;20098;-88
2022/03/04 03:26:36;;;;;;;15.90;10.82;;;;;;;-0.26;59.73;101781.44;4920925;29;20047;-88
2022/03/04 03:29:02;;;;;;;16.83;10.75;;;;;;;-0.27;63.15;101777.91;4920780;29;20110;-89
2022/03/04 03:31:27;;;;;;;17.65;10.70;;;;;;;-0.26;63.54;101784.94;4920518;29;20063;-88
2022/03/04 03:33:53;;;;;;;16.25;10.40;;;;;;;-0.31;64.10;101784.47;4937271;29;20028;-89
2022/03/04 03:36:20;;;;;;;16.02;9.77;;;;;;;-0.38;63.56;101783.25;4920478;29;20042;-88
2022/03/04 03:38:46;;;;;;;15.63;9.20;;;;;;;-0.40;62.79;101794.03;4937334;29;20063;-88
2022/03/04 03:41:11;;;;;;;14.45;9.23;;;;;;;-0.44;63.92;101791.75;4920082;29;20059;-89
2022/03/04 03:43:37;;;;;;;13.35;8.65;;;;;;;-0.45;64.59;101798.88;4920859;29;20031;-88
2022/03/04 03:46:02;;;;;;;15.88;9.43;;;;;;;-0.48;65.69;101799.13;4920266;29;20082;-88
2022/03/04 03:48:28;;;;;;;13.98;8.52;;;;;;;-0.48;65.44;101793.78;4920309;29;20036;-88
2022/03/04 03:50:53;;;;;;;14.68;9.52;;;;;;;-0.48;64.46;101793.78;4903910;29;20032;-87
2022/03/04 03:53:19;;;;;;;13.20;8.70;;;;;;;-0.52;64.83;101786.16;4919677;29;20172;-87
2022/03/04 03:55:49;;;;;;;14.57;9.25;;;;;;;-0.58;63.24;101785.63;4920137;29;20024;-88
2022/03/04 03:58:15;;;;;;;15.63;9.80;;;;;;;-0.58;64.26;101790.13;4904725;29;20040;-87
2022/03/04 04:00:40;;;;;;;16.20;9.98;;;;;;;-0.58;65.61;101806.13;4919740;29;20028;-87
2022/03/04 04:03:07;;;;;;;14.40;9.93;;;;;;;-0.61;64.72;101793.88;4919865;29;20028;-87
2022/03/04 04:05:35;;;;;;;15.65;10.30;;;;;;;-0.62;64.59;101800.19;4937295;29;20060;-87
2022/03/04 04:08:00;;;;;;;13.95;9.30;;;;;;;-0.62;65.47;101800.19;4920417;29;20134;-87
2022/03/04 04:10:26;;;;;;;14.48;9.15;;;;;;;-0.64;65.29;101806.59;4919551;29;20536;-87
2022/03/04 04:12:51;;;;;;;16.17;9.75;;;;;;;-0.68;63.78;101807.81;4888647;29;20039;-87
2022/03/04 04:15:18;;;;;;;13.98;9.63;;;;;;;-0.69;64.90;101806.97;4919674;29;20147;-88
2022/03/04 04:17:43;;;;;;;15.73;9.73;;;;;;;-0.73;65.92;101813.50;4919452;29;20142;-88
2022/03/04 04:20:11;;;;;;;16.42;10.23;;;;;;;-0.73;65.96;101819.66;4919412;29;20126;-87
2022/03/04 04:22:40;;;;;;;17.30;10.70;;;;;;;-0.78;66.24;101816.50;4919778;29;20062;-87
2022/03/04 04:25:06;;;;;;;16.33;10.57;;;;;;;-0.80;65.42;101814.94;4919906;29;20032;-87
2022/03/04 04:27:31;;;;;;;16.98;10.70;;;;;;;-0.81;66.14;101810.56;4919892;29;20042;-88
2022/03/04 04:30:00;;;;;;;18.40;11.30;;;;;;;-0.78;63.61;101815.69;4903862;29;20397;-87
2022/03/04 04:32:28;;;;;;;17.75;11.32;;;;;;;-0.79;67.44;101819.28;4920009;29;20115;-87
2022/03/04 04:34:53;;;;;;;17.80;10.82;;;;;;;-0.81;67.24;101818.53;4920070;29;20046;-88
2022/03/04 04:37:19;;;;;;;18.02;11.75;;;;;;;-0.79;66.47;101817.47;4936389;29;20043;-88
2022/03/04 04:39:44;;;;;;;18.02;11.52;;;;;;;-0.80;67.14;101815.75;4919306;29;20028;-88
2022/03/04 04:42:10;;;;;;;17.17;10.93;;;;;;;-0.76;66.13;101819.91;4919481;29;20043;-88
2022/03/04 04:44:35;;;;;;;16.38;10.20;;;;;;;-0.80;66.52;101829.09;4903028;29;20190;-88
2022/03/04 04:47:06;;;;;;;18.45;11.68;;;;;;;-0.85;69.22;101828.59;4919556;29;20155;-88
2022/03/04 04:49:36;;;;;;;18.08;11.77;;;;;;;-0.82;66.39;101824.88;4936515;29;20464;-88
2022/03/04 04:52:04;;;;;;;17.42;11.32;;;;;;;-0.82;63.25;101825.69;4937337;29;20083;-88
2022/03/04 04:54:30;;;;;;;18.95;10.85;;;;;;;-0.83;67.49;101826.66;4903741;29;20039;-88
2022/03/04 04:56:55;;;;;;;19.60;12.20;;;;;;;-0.79;66.44;101830.78;4918882;29;20036;-88
2022/03/04 04:59:21;;;;;;;19.08;12.65;;;;;;;-0.79;66.78;101828.13;4903539;29;20027;-88
2022/03/04 05:01:46;;;;;;;18.42;11.98;;;;;;;-0.77;65.85;101831.56;4936637;29;20155;-88
2022/03/04 05:04:12;;;;;;;20.23;13.48;;;;;;;-0.78;66.82;101819.19;4936308;29;20032;-88
2022/03/04 05:06:37;;;;;;;21.02;12.95;;;;;;;-0.74;66.49;101822.44;4919324;29;20400;-89
2022/03/04 05:09:03;;;;;;;19.02;12.30;;;;;;;-0.79;66.83;101819.28;4903686;29;20032;-88
2022/03/04 05:11:31;;;;;;;18.33;11.38;;;;;;;-0.80;67.71;101820.25;4919217;29;20032;-88
2022/03/04 05:13:57;;;;;;;16.65;11.05;;;;;;;-0.81;66.21;101821.22;4919489;29;20040;-88
2022/03/04 05:16:22;;;;;;;16.63;10.85;;;;;;;-0.83;66.45;101816.00;4918878;29;20048;-88
2022/03/04 05:18:48;;;;;;;16.55;10.30;;;;;;;-0.85;67.07;101815.28;4918820;29;20051;-88
2022/03/04 05:21:13;;;;;;;16.77;11.00;;;;;;;-0.85;68.01;101823.28;4919069;29;20059;-88
2022/03/04 05:26:23;;;;;;;17.10;11.05;;;;;;;-0.89;66.80;101827.13;4922286;29;20111;-88
2022/03/04 05:28:49;;;;;;;15.77;10.50;;;;;;;-0.95;68.30;101827.59;4904169;29;20036;-88
2022/03/04 05:31:14;;;;;;;15.95;10.05;;;;;;;-0.99;68.34;101824.34;4936983;29;20035;-88
2022/03/04 05:33:40;;;;;;;18.15;10.45;;;;;;;-0.99;67.02;101823.47;4918646;29;20104;-88
2022/03/04 05:36:05;;;;;;;14.32;9.55;;;;;;;-1.03;67.93;101830.84;4919329;29;20031;-88
2022/03/04 05:38:31;;;;;;;15.55;9.75;;;;;;;-1.02;67.22;101829.88;4919346;29;20032;-88
2022/03/04 05:40:56;;;;;;;15.93;10.55;;;;;;;-1.01;66.86;101828.06;4919305;29;20027;-88
2022/03/04 05:43:22;;;;;;;18.15;11.27;;;;;;;-1.01;65.41;101831.56;4935975;29;20076;-88
2022/03/04 05:45:48;;;;;;;16.92;11.00;;;;;;;-0.95;67.44;101840.91;4919269;29;20035;-88
2022/03/04 05:48:13;;;;;;;17.55;10.60;;;;;;;-0.98;67.80;101849.16;4935751;29;20032;-88
2022/03/04 05:50:39;;;;;;;16.30;10.35;;;;;;;-1.00;67.64;101849.25;4918542;29;20070;-88
2022/03/04 05:53:06;;;;;;;15.55;9.00;;;;;;;-1.03;67.89;101848.63;4903168;29;20050;-88
2022/03/04 05:55:32;;;;;;;15.63;9.30;;;;;;;-1.06;67.17;101849.72;4918419;29;20035;-88
2022/03/04 05:58:03;;;;;;;15.52;9.73;;;;;;;-1.08;66.94;101856.97;4921784;29;20035;-88
2022/03/04 06:00:38;;;;;;;13.70;9.13;;;;;;;-1.14;67.39;101862.75;4939415;29;20036;-88
2022/03/04 06:03:11;;;;;;;15.40;9.32;;;;;;;-1.17;67.26;101857.66;4922319;29;20028;-89
2022/03/04 06:05:37;;;;;;;14.00;9.25;;;;;;;-1.18;67.55;101867.47;4939356;29;20472;-87
2022/03/04 06:08:02;;;;;;;15.98;9.35;;;;;;;-1.19;67.47;101868.44;4890872;29;20042;-86
2022/03/04 06:10:28;;;;;;;15.85;10.15;;;;;;;-1.20;67.53;101873.88;4921703;29;20539;-86
2022/03/04 06:12:53;;;;;;;15.93;9.90;;;;;;;-1.23;67.88;101869.63;4906189;29;20123;-86
2022/03/04 06:15:22;;;;;;;16.77;9.75;;;;;;;-1.25;68.17;101866.22;4921949;29;20118;-86
2022/03/04 06:17:49;;;;;;;16.08;10.20;;;;;;;-1.22;67.32;101873.16;4921396;29;20107;-85
2022/03/04 06:20:18;;;;;;;16.98;10.35;;;;;;;-1.27;67.41;101868.13;4921717;29;20039;-85
2022/03/04 06:22:47;;;;;;;15.80;9.88;;;;;;;-1.26;68.24;101878.66;4921491;29;20050;-85
2022/03/04 06:25:14;;;;;;;15.90;10.00;;;;;;;-1.27;67.50;101873.47;4938557;29;20484;-85
2022/03/04 06:28:00;;;;;;;17.13;10.77;;;;;;;-1.22;65.46;101881.13;4921633;29;20122;-86
2022/03/04 06:30:32;;;;;;;17.65;10.82;;;;;;;-1.22;67.60;101879.31;4921911;29;20469;-85
2022/03/04 06:35:44;;;;;;;18.88;11.50;;;;;;;-1.14;67.61;101887.56;4938458;29;20043;-86
2022/03/04 06:38:18;;;;;;;19.30;11.77;;;;;;;-1.15;67.21;101880.56;4921246;29;20035;-85
2022/03/04 06:40:44;;;;;;;18.88;11.70;;;;;;;-1.08;68.36;101887.13;4921550;29;20380;-86
2022/03/04 06:43:10;;;;;;;19.58;10.95;;;;;;;-1.09;68.32;101888.09;4921556;29;20032;-86
2022/03/04 06:45:37;;;;;;;18.40;11.32;;;;;;;-1.02;66.35;101890.28;4938148;29;20086;-86
2022/03/04 06:48:03;;;;;;;18.73;12.50;;;;;;;-0.96;68.11;101888.03;4938650;29;20040;-86
2022/03/04 06:50:29;;;;;;;18.00;12.02;;;;;;;-0.91;67.21;101893.84;4938212;29;20050;-86
2022/03/04 06:52:55;;;;;;;19.45;13.02;;;;;;;-0.90;66.51;101890.25;4921130;29;20039;-85
2022/03/04 06:55:21;;;;;;;20.45;12.88;;;;;;;-0.80;67.43;101901.03;4937911;29;20032;-85
2022/03/04 06:57:50;;;;;;;19.67;12.38;;;;;;;-0.79;68.69;101901.91;4938179;29;20032;-86
2022/03/04 07:00:17;;;;;;;20.40;12.23;;;;;;;-0.75;66.87;101906.88;4922063;29;20047;-85
2022/03/04 07:02:42;;;;;;;18.67;12.07;;;;;;;-0.71;67.78;101907.50;4921103;29;20032;-86
2022/03/04 07:05:09;;;;;;;18.05;11.13;;;;;;;-0.68;67.89;101898.44;4905773;29;20054;-86
2022/03/04 07:07:35;;;;;;;19.88;11.30;;;;;;;-0.67;67.79;101914.31;4920096;29;20560;-86
2022/03/04 07:10:06;;;;;;;18.30;11.02;;;;;;;-0.60;66.98;101918.22;4920775;29;20062;-86
2022/03/04 07:12:31;;;;;;;21.80;11.98;;;;;;;-0.54;67.85;101925.75;4921060;29;20035;-86
2022/03/04 07:14:57;;;;;;;19.25;11.63;;;;;;;-0.50;67.54;101922.84;4920798;29;20028;-86
2022/03/04 07:21:02;;;;;;;18.80;11.48;;;;;;;-0.37;67.26;101939.59;4935995;29;20054;-86
2022/03/04 07:23:31;;;;;;;18.15;10.77;;;;;;;-0.31;65.10;101938.28;4921385;29;20043;-86
2022/03/04 07:25:57;;;;;;;17.40;10.98;;;;;;;-0.24;65.95;101942.19;4920561;29;20483;-86
2022/03/04 07:28:22;;;;;;;18.27;11.30;;;;;;;-0.18;66.89;101936.38;4920529;29;20028;-86
2022/03/04 07:30:48;;;;;;;19.23;12.15;;;;;;;-0.14;67.48;101929.00;4905009;29;20106;-86
2022/03/04 07:33:16;;;;;;;21.70;13.27;;;;;;;-0.05;67.25;101933.63;4904302;29;20472;-87
2022/03/04 07:35:45;;;;;;;21.33;12.50;;;;;;;0.03;67.37;101930.34;4920320;29;20043;-85
2022/03/04 07:38:12;;;;;;;21.83;13.20;;;;;;;0.09;67.01;101929.84;4905291;29;20035;-86
2022/03/04 07:40:37;;;;;;;22.25;14.10;;;;;;;0.20;66.96;101935.22;4919901;29;20039;-86
2022/03/04 07:43:04;;;;;;;20.55;13.18;;;;;;;0.27;66.62;101930.25;4920519;29;20409;-86
2022/03/04 07:45:33;;;;;;;22.50;14.07;;;;;;;0.36;66.09;101926.00;4904464;29;20477;-86
2022/03/04 07:47:59;;;;;;;20.70;13.05;;;;;;;0.44;63.55;101929.72;4919763;29;20032;-86
2022/03/04 07:50:28;;;;;;;21.05;13.20;;;;;;;0.54;64.44;101926.34;4920873;29;20090;-86
2022/03/04 07:52:53;;;;;;;20.65;13.35;;;;;;;0.59;66.08;101926.81;4920368;29;20038;-86
2022/03/04 07:55:19;;;;;;;21.10;13.65;;;;;;;0.69;64.80;101935.78;4920438;29;20484;-85
2022/03/04 07:57:44;;;;;;;22.90;13.73;;;;;;;0.77;65.09;101929.81;4936964;29;20071;-86
2022/03/04 08:00:13;;;;;;;22.20;13.65;;;;;;;0.81;65.69;101931.28;4903632;29;20054;-85
2022/03/04 08:02:45;;;;;;;22.75;13.45;;;;;;;0.88;64.83;101927.97;4919742;29;20039;-86
2022/03/04 08:05:11;;;;;;;21.13;13.27;;;;;;;0.98;64.93;101936.09;4920023;29;20074;-85
2022/03/04 08:07:37;;;;;;;22.30;13.63;;;;;;;1.04;64.77;101938.25;4936645;29;20102;-85
2022/03/04 08:10:05;;;;;;;22.73;14.15;;;;;;;1.13;63.91;101935.81;4904144;29;20194;-85
2022/03/04 08:12:31;;;;;;;21.38;14.68;;;;;;;1.22;65.30;101940.38;4919797;29;20122;-86
2022/03/04 08:14:56;;;;;;;22.42;14.45;;;;;;;1.26;63.38;101932.97;4919586;29;20180;-86
2022/03/04 08:17:22;;;;;;;20.23;13.27;;;;;;;1.33;63.30;101935.00;4920307;29;20130;-86
2022/03/04 08:19:47;;;;;;;24.85;15.70;;;;;;;1.45;63.55;101949.19;4902668;29;20028;-85
2022/03/04 08:22:13;;;;;;;24.00;15.40;;;;;;;1.49;62.79;101939.94;4920150;29;20047;-85
2022/03/04 08:24:41;;;;;;;22.00;14.15;;;;;;;1.58;62.79;101946.34;4919344;29;20103;-86
2022/03/04 08:27:07;;;;;;;22.50;13.52;;;;;;;1.66;62.06;101937.66;4919224;29;20035;-85
2022/03/04 08:29:32;;;;;;;21.25;13.32;;;;;;;1.72;62.42;101942.47;4919249;29;20038;-86
2022/03/04 08:31:58;;;;;;;25.23;16.08;;;;;;;1.82;62.17;101943.38;4919378;29;20051;-86
2022/03/04 08:34:23;;;;;;;21.95;14.68;;;;;;;1.88;62.07;101947.38;4919087;29;20035;-86
2022/03/04 08:36:52;;;;;;;22.42;15.02;;;;;;;1.97;61.82;101956.44;4904366;29;20036;-85
2022/03/04 08:39:18;;;;;;;24.60;16.10;;;;;;;2.04;61.29;101949.59;4919749;29;20138;-86
2022/03/04 08:41:44;;;;;;;22.73;15.10;;;;;;;2.12;61.42;101952.44;4903481;29;20549;-86
2022/03/04 08:44:12;;;;;;;23.02;14.43;;;;;;;2.21;60.88;101958.81;4919599;29;20192;-86
2022/03/04 08:46:39;;;;;;;23.73;14.75;;;;;;;2.25;60.96;101954.91;4919416;29;20459;-85
2022/03/04 08:49:04;;;;;;;20.63;13.35;;;;;;;2.35;60.87;101962.97;4919178;29;20039;-86
2022/03/04 08:51:30;;;;;;;21.75;14.35;;;;;;;2.43;61.32;101969.34;4936631;29;20110;-85
2022/03/04 08:53:55;;;;;;;22.27;14.13;;;;;;;2.48;60.73;101962.75;4919187;29;20114;-86
2022/03/04 08:56:24;;;;;;;19.70;13.35;;;;;;;2.58;61.14;101975.22;4936098;29;20036;-85
2022/03/04 08:58:50;;;;;;;23.80;15.98;;;;;;;2.72;60.29;101965.94;4936519;29;20130;-86
2022/03/04 09:01:15;;;;;;;23.25;14.77;;;;;;;2.76;59.32;101974.53;4936327;29;20124;-85
2022/03/04 09:03:41;;;;;;;23.65;14.57;;;;;;;2.88;58.58;101972.59;4903810;29;20042;-85
2022/03/04 09:06:06;;;;;;;20.98;13.70;;;;;;;2.95;58.09;101971.06;4903371;29;20484;-85
2022/03/04 09:08:32;;;;;;;19.48;13.20;;;;;;;2.99;58.41;101965.28;4887372;29;20122;-85
2022/03/04 09:10:58;;;;;;;19.08;12.93;;;;;;;3.05;58.62;101963.06;4935954;29;20105;-84
2022/03/04 09:13:24;;;;;;;19.02;12.07;;;;;;;3.11;58.00;101965.19;4902944;29;20125;-85
2022/03/04 09:15:55;;;;;;;18.98;12.23;;;;;;;3.19;58.50;101959.13;4918954;29;20130;-85
2022/03/04 09:18:20;;;;;;;19.25;11.90;;;;;;;3.30;57.90;101973.25;4918673;29;20089;-86
2022/03/04 09:20:46;;;;;;;19.08;11.60;;;;;;;3.37;58.23;101957.44;4918504;29;20083;-85
2022/03/04 09:23:14;;;;;;;18.80;12.75;;;;;;;3.45;57.96;101956.72;4919470;29;20082;-85
2022/03/04 09:25:39;;;;;;;21.88;13.88;;;;;;;3.54;57.42;101949.69;4918918;29;20036;-85
2022/03/04 09:28:06;;;;;;;22.13;15.40;;;;;;;3.67;57.53;101958.28;4903957;29;20047;-85
2022/03/04 09:30:33;;;;;;;22.70;15.40;;;;;;;3.71;56.41;101954.31;4918601;29;20035;-86
2022/03/04 09:33:03;;;;;;;21.92;14.63;;;;;;;3.80;56.28;101955.31;4939954;29;20032;-86
2022/03/04 09:35:28;;;;;;;18.33;11.73;;;;;;;3.82;56.44;101948.81;4891281;29;20024;-85
2022/03/04 09:37:54;;;;;;;20.33;13.15;;;;;;;3.91;56.31;101948.91;4906629;29;20042;-86
2022/03/04 09:40:19;;;;;;;20.00;13.25;;;;;;;3.98;55.90;101945.50;4922635;29;20032;-85
2022/03/04 09:42:45;;;;;;;18.27;12.10;;;;;;;4.06;55.74;101954.69;4922331;29;20027;-85
2022/03/04 09:45:10;;;;;;;24.38;15.88;;;;;;;4.21;54.88;101950.56;4922642;29;20040;-86
2022/03/04 09:47:36;;;;;;;22.38;14.40;;;;;;;4.29;55.09;101941.75;4923023;29;20031;-86
2022/03/04 09:50:05;;;;;;;22.17;14.55;;;;;;;4.38;54.65;101938.16;4906564;29;20096;-86
2022/03/04 09:52:31;;;;;;;21.40;14.65;;;;;;;4.42;54.34;101942.25;4922224;29;20472;-85
2022/03/04 09:54:59;;;;;;;20.88;14.07;;;;;;;4.51;53.85;101946.75;4891037;29;20042;-85
2022/03/04 09:57:28;;;;;;;20.55;13.13;;;;;;;4.61;53.86;101948.56;4939044;29;20035;-86
2022/03/04 09:59:53;;;;;;;21.02;13.77;;;;;;;4.71;53.42;101952.88;4906497;29;20028;-85
2022/03/04 10:02:20;;;;;;;19.60;12.70;;;;;;;4.79;53.07;101949.44;4922541;29;20039;-86
2022/03/04 10:04:45;;;;;;;21.75;13.93;;;;;;;4.89;53.41;101942.16;4905686;29;20078;-85
2022/03/04 10:07:20;;;;;;;20.00;12.75;;;;;;;5.00;53.53;101941.09;4921846;29;20067;-85
2022/03/04 10:09:49;;;;;;;20.70;13.13;;;;;;;5.10;53.03;101939.16;4915793;29;20032;-85
2022/03/04 10:12:23;;;;;;;17.13;11.68;;;;;;;5.23;53.12;101941.50;4938688;29;20103;-85
2022/03/04 10:14:59;;;;;;;19.70;12.13;;;;;;;5.36;52.41;101946.50;4921864;29;20265;-85
2022/03/04 10:17:28;;;;;;;19.95;12.40;;;;;;;5.47;53.02;101944.56;4922036;29;20409;-85
2022/03/04 10:20:00;;;;;;;19.40;12.52;;;;;;;5.62;52.44;101948.41;4921600;29;20023;-85
2022/03/04 10:22:42;;;;;;;;;;;;;;;5.73;52.30;101956.25;4939315;29;20035;-85
2022/03/04 10:25:27;;;;;;;21.08;12.93;;;;;;;5.92;51.53;101957.03;4921977;29;19974;-83
2022/03/04 10:27:53;;;;;;;18.00;12.20;;;;;;;6.06;50.97;101961.88;4921742;29;20036;-86
2022/03/04 10:30:42;;;;;;;17.00;11.23;;;;;;;6.22;50.80;101960.31;4889921;29;20038;-85
2022/03/04 10:33:14;;;;;;;18.40;11.95;;;;;;;6.37;50.65;101958.69;4921419;29;20038;-85
2022/03/04 10:35:43;;;;;;;17.88;11.45;;;;;;;6.54;50.66;101953.38;4921570;29;20467;-85
2022/03/04 10:38:19;;;;;;;18.17;12.25;;;;;;;6.69;50.09;101949.09;4906273;29;20059;-86
2022/03/04 10:40:44;;;;;;;16.77;11.00;;;;;;;6.84;50.02;101957.41;4920965;29;20024;-86
2022/03/04 10:43:13;;;;;;;17.05;10.65;;;;;;;7.00;49.46;101948.50;4937446;29;20027;-86
2022/03/04 10:45:42;;;;;;;15.38;10.73;;;;;;;7.16;48.48;101947.69;4938639;29;20040;-86
2022/03/04 10:48:15;;;;;;;17.25;10.70;;;;;;;7.34;48.81;101945.69;4921107;29;20114;-86
2022/03/04 10:50:52;;;;;;;16.50;11.20;;;;;;;7.51;48.29;101940.28;4905880;29;20131;-86
2022/03/04 10:53:21;;;;;;;16.25;9.90;;;;;;;7.65;47.55;101934.22;4938707;29;20060;-86
2022/03/04 10:55:55;;;;;;;14.80;9.75;;;;;;;7.86;47.74;101939.09;4920793;29;20498;-86
2022/03/04 10:58:33;;;;;;;15.73;10.52;;;;;;;8.01;47.50;101931.13;4920723;29;20031;-86
2022/03/04 11:01:05;;;;;;;16.08;11.00;;;;;;;8.26;45.61;101926.50;4905447;29;20032;-86
2022/03/04 11:03:32;;;;;;;16.67;10.88;;;;;;;8.43;44.81;101929.19;4937943;29;20101;-86
2022/03/04 11:06:01;;;;;;;14.93;9.70;;;;;;;8.62;44.10;101933.34;4906149;29;20063;-86
2022/03/04 11:08:29;;;;;;;15.80;10.68;;;;;;;8.82;43.04;101927.53;4937660;29;20031;-86
2022/03/04 11:10:56;;;;;;;16.95;10.15;;;;;;;9.02;43.09;101930.59;4920743;29;20480;-85
2022/03/04 11:13:22;;;;;;;16.17;10.70;;;;;;;9.27;42.51;101934.00;4920409;29;20103;-86
2022/03/04 11:15:49;;;;;;;17.20;11.27;;;;;;;9.56;42.74;101922.41;4920885;29;20032;-86
2022/03/04 11:18:17;;;;;;;15.32;11.07;;;;;;;9.93;41.70;101925.31;4905148;29;20039;-85
2022/03/04 11:20:47;;;;;;;15.68;10.40;;;;;;;10.31;40.81;101923.38;4920583;29;20055;-87
2022/03/04 11:23:37;;;;;;;15.40;10.88;;;;;;;11.16;41.21;101896.66;4921847;29;20039;-86
2022/03/04 11:26:15;;;;;;;16.00;10.60;;;;;;;14.37;37.14;101903.22;4900753;29;20044;-86